65.3°F
Current conditions from King Hill
Updated every 5 minutes
 
  Sunday August 31, 2014

Station Historical Data
Daily Summary for February 14, 2012 Units:  Both    English   Metric
« Previous Day
Next Day »
Daily Weekly Monthly Yearly Custom
  High: Low: Average:
Temperature: 37.2 °F /  2.9 °C 20.7 °F /  -6.3 °C 30.4 °F /  -0.9 °C
Dew Point: 24.4 °F /  -4.2 °C 14.3 °F /  -9.8 °C 19 °F /  -7.2 °C
Humidity: 77% 51% 63%
Wind Speed: 9.0mph /  14.5km/h - 4.5mph /  7.2km/h
Wind Gust: 17.0mph /  27.4km/h - -
Wind- - SSW
Pressure: 30.02 in /  1016.5 hPa 29.89 in /  1012.1 hPa -
Precipitation: 0.00 in /  0 mm    
Historical Graphs
 
 
Tabular Data for February 14, 2012
Time Temperature Dew Point Pressure Wind Wind Speed Wind Gust Humidity Daily Rainfall
00:00 28.1 °F /  -2.2 °C 18.2 °F /  -7.7 °C 29.89in /  1012.1hPa WSW 5.0mph /  8km/h 11.0mph /  17.7km/h 66% 0.00in /  0mm
00:05 28.1 °F /  -2.2 °C 18.6 °F /  -7.4 °C 29.89in /  1012.1hPa WSW 5.0mph /  8km/h 10.0mph /  16.1km/h 67% 0.00in /  0mm
00:10 28.2 °F /  -2.1 °C 18.7 °F /  -7.4 °C 29.89in /  1012.1hPa WSW 6.0mph /  9.7km/h 11.0mph /  17.7km/h 67% 0.00in /  0mm
00:15 28.3 °F /  -2.1 °C 18.7 °F /  -7.4 °C 29.89in /  1012.1hPa WSW 7.0mph /  11.3km/h 15.0mph /  24.1km/h 67% 0.00in /  0mm
00:20 28.7 °F /  -1.8 °C 19.1 °F /  -7.2 °C 29.89in /  1012.1hPa WSW 5.0mph /  8km/h 15.0mph /  24.1km/h 67% 0.00in /  0mm
00:30 28.7 °F /  -1.8 °C 18.8 °F /  -7.3 °C 29.89in /  1012.1hPa WSW 7.0mph /  11.3km/h 16.0mph /  25.7km/h 66% 0.00in /  0mm
00:35 28.6 °F /  -1.9 °C 19.0 °F /  -7.2 °C 29.89in /  1012.1hPa WSW 7.0mph /  11.3km/h 16.0mph /  25.7km/h 67% 0.00in /  0mm
00:40 28.3 °F /  -2.1 °C 18.7 °F /  -7.4 °C 29.89in /  1012.1hPa WSW 7.0mph /  11.3km/h 16.0mph /  25.7km/h 67% 0.00in /  0mm
00:45 28.4 °F /  -2 °C 18.8 °F /  -7.3 °C 29.89in /  1012.1hPa WSW 7.0mph /  11.3km/h 13.0mph /  20.9km/h 67% 0.00in /  0mm
00:50 28.1 °F /  -2.2 °C 18.6 °F /  -7.4 °C 29.89in /  1012.1hPa WSW 5.0mph /  8km/h 13.0mph /  20.9km/h 67% 0.00in /  0mm
01:00 28.1 °F /  -2.2 °C 18.9 °F /  -7.3 °C 29.90in /  1012.4hPa WSW 9.0mph /  14.5km/h 17.0mph /  27.4km/h 68% 0.00in /  0mm
01:05 28.3 °F /  -2.1 °C 18.7 °F /  -7.4 °C 29.90in /  1012.4hPa WSW 8.0mph /  12.9km/h 17.0mph /  27.4km/h 67% 0.00in /  0mm
01:10 28.4 °F /  -2 °C 18.8 °F /  -7.3 °C 29.90in /  1012.4hPa West 7.0mph /  11.3km/h 16.0mph /  25.7km/h 67% 0.00in /  0mm
01:15 28.2 °F /  -2.1 °C 18.7 °F /  -7.4 °C 29.90in /  1012.4hPa West 8.0mph /  12.9km/h 14.0mph /  22.5km/h 67% 0.00in /  0mm
01:20 28.3 °F /  -2.1 °C 18.7 °F /  -7.4 °C 29.90in /  1012.4hPa WSW 6.0mph /  9.7km/h 13.0mph /  20.9km/h 67% 0.00in /  0mm
01:25 28.2 °F /  -2.1 °C 18.7 °F /  -7.4 °C 29.91in /  1012.8hPa WSW 7.0mph /  11.3km/h 14.0mph /  22.5km/h 67% 0.00in /  0mm
01:30 28.4 °F /  -2 °C 18.5 °F /  -7.5 °C 29.91in /  1012.8hPa WSW 5.0mph /  8km/h 15.0mph /  24.1km/h 66% 0.00in /  0mm
01:35 28.4 °F /  -2 °C 18.5 °F /  -7.5 °C 29.91in /  1012.8hPa West 7.0mph /  11.3km/h 15.0mph /  24.1km/h 66% 0.00in /  0mm
01:40 28.4 °F /  -2 °C 18.8 °F /  -7.3 °C 29.91in /  1012.8hPa WSW 6.0mph /  9.7km/h 14.0mph /  22.5km/h 67% 0.00in /  0mm
01:50 28.7 °F /  -1.8 °C 18.8 °F /  -7.3 °C 29.91in /  1012.8hPa WSW 8.0mph /  12.9km/h 17.0mph /  27.4km/h 66% 0.00in /  0mm
01:55 28.7 °F /  -1.8 °C 18.4 °F /  -7.6 °C 29.92in /  1013.1hPa WSW 5.0mph /  8km/h 17.0mph /  27.4km/h 65% 0.00in /  0mm
02:00 28.5 °F /  -1.9 °C 18.2 °F /  -7.7 °C 29.92in /  1013.1hPa WSW 5.0mph /  8km/h 12.0mph /  19.3km/h 65% 0.00in /  0mm
02:05 28.2 °F /  -2.1 °C 17.9 °F /  -7.8 °C 29.92in /  1013.1hPa WSW 4.0mph /  6.4km/h 12.0mph /  19.3km/h 65% 0.00in /  0mm
02:15 28.0 °F /  -2.2 °C 18.1 °F /  -7.7 °C 29.92in /  1013.1hPa WSW 5.0mph /  8km/h 10.0mph /  16.1km/h 66% 0.00in /  0mm
02:20 28.1 °F /  -2.2 °C 18.2 °F /  -7.7 °C 29.92in /  1013.1hPa West 4.0mph /  6.4km/h 10.0mph /  16.1km/h 66% 0.00in /  0mm
02:25 28.0 °F /  -2.2 °C 18.1 °F /  -7.7 °C 29.92in /  1013.1hPa WSW 6.0mph /  9.7km/h 10.0mph /  16.1km/h 66% 0.00in /  0mm
02:30 27.9 °F /  -2.3 °C 18.0 °F /  -7.8 °C 29.92in /  1013.1hPa WSW 5.0mph /  8km/h 10.0mph /  16.1km/h 66% 0.00in /  0mm
02:35 27.9 °F /  -2.3 °C 18.0 °F /  -7.8 °C 29.93in /  1013.4hPa West 4.0mph /  6.4km/h 10.0mph /  16.1km/h 66% 0.00in /  0mm
02:45 27.8 °F /  -2.3 °C 18.3 °F /  -7.6 °C 29.93in /  1013.4hPa West 5.0mph /  8km/h 9.0mph /  14.5km/h 67% 0.00in /  0mm
02:55 27.3 °F /  -2.6 °C 17.8 °F /  -7.9 °C 29.93in /  1013.4hPa WSW 2.0mph /  3.2km/h 5.0mph /  8km/h 67% 0.00in /  0mm
03:00 26.8 °F /  -2.9 °C 17.3 °F /  -8.2 °C 29.93in /  1013.4hPa Calm   5.0mph /  8km/h 67% 0.00in /  0mm
03:05 26.2 °F /  -3.2 °C 17.1 °F /  -8.3 °C 29.93in /  1013.4hPa Calm   5.0mph /  8km/h 68% 0.00in /  0mm
03:10 25.8 °F /  -3.4 °C 17.0 °F /  -8.3 °C 29.93in /  1013.4hPa Calm   5.0mph /  8km/h 69% 0.00in /  0mm
03:15 25.3 °F /  -3.7 °C 16.6 °F /  -8.6 °C 29.93in /  1013.4hPa Calm   1.0mph /  1.6km/h 69% 0.00in /  0mm
03:20 24.9 °F /  -3.9 °C 16.5 °F /  -8.6 °C 29.93in /  1013.4hPa West 1.0mph /  1.6km/h 3.0mph /  4.8km/h 70% 0.00in /  0mm
03:25 24.7 °F /  -4.1 °C 16.6 °F /  -8.6 °C 29.93in /  1013.4hPa West 1.0mph /  1.6km/h 3.0mph /  4.8km/h 71% 0.00in /  0mm
03:30 24.3 °F /  -4.3 °C 16.3 °F /  -8.7 °C 29.93in /  1013.4hPa Calm   3.0mph /  4.8km/h 71% 0.00in /  0mm
03:40 24.3 °F /  -4.3 °C 16.6 °F /  -8.6 °C 29.94in /  1013.8hPa West 1.0mph /  1.6km/h 3.0mph /  4.8km/h 72% 0.00in /  0mm
03:45 24.4 °F /  -4.2 °C 17.0 °F /  -8.3 °C 29.94in /  1013.8hPa West 2.0mph /  3.2km/h 4.0mph /  6.4km/h 73% 0.00in /  0mm
03:50 24.7 °F /  -4.1 °C 17.0 °F /  -8.3 °C 29.94in /  1013.8hPa Calm   4.0mph /  6.4km/h 72% 0.00in /  0mm
03:55 24.8 °F /  -4 °C 17.1 °F /  -8.3 °C 29.94in /  1013.8hPa Calm   3.0mph /  4.8km/h 72% 0.00in /  0mm
04:00 24.6 °F /  -4.1 °C 16.9 °F /  -8.4 °C 29.94in /  1013.8hPa Calm     72% 0.00in /  0mm
04:05 24.5 °F /  -4.2 °C 16.8 °F /  -8.4 °C 29.94in /  1013.8hPa West 1.0mph /  1.6km/h 2.0mph /  3.2km/h 72% 0.00in /  0mm
04:10 24.0 °F /  -4.4 °C 16.0 °F /  -8.9 °C 29.94in /  1013.8hPa Calm   2.0mph /  3.2km/h 71% 0.00in /  0mm
04:15 23.4 °F /  -4.8 °C 15.7 °F /  -9.1 °C 29.95in /  1014.1hPa West 2.0mph /  3.2km/h 3.0mph /  4.8km/h 72% 0.00in /  0mm
04:20 23.0 °F /  -5 °C 15.6 °F /  -9.1 °C 29.95in /  1014.1hPa Calm   3.0mph /  4.8km/h 73% 0.00in /  0mm
04:30 23.0 °F /  -5 °C 16.0 °F /  -8.9 °C 29.95in /  1014.1hPa SSW 3.0mph /  4.8km/h 5.0mph /  8km/h 74% 0.00in /  0mm
04:40 23.1 °F /  -4.9 °C 15.7 °F /  -9.1 °C 29.95in /  1014.1hPa WSW 4.0mph /  6.4km/h 7.0mph /  11.3km/h 73% 0.00in /  0mm
04:50 24.4 °F /  -4.2 °C 16.3 °F /  -8.7 °C 29.96in /  1014.4hPa WSW 1.0mph /  1.6km/h 10.0mph /  16.1km/h 71% 0.00in /  0mm
04:55 24.7 °F /  -4.1 °C 16.3 °F /  -8.7 °C 29.96in /  1014.4hPa SSW 1.0mph /  1.6km/h 6.0mph /  9.7km/h 70% 0.00in /  0mm
05:00 24.9 °F /  -3.9 °C 16.2 °F /  -8.8 °C 29.96in /  1014.4hPa SW 2.0mph /  3.2km/h 6.0mph /  9.7km/h 69% 0.00in /  0mm
05:05 24.9 °F /  -3.9 °C 15.8 °F /  -9 °C 29.96in /  1014.4hPa SSW 2.0mph /  3.2km/h 6.0mph /  9.7km/h 68% 0.00in /  0mm
05:10 24.8 °F /  -4 °C 15.7 °F /  -9.1 °C 29.96in /  1014.4hPa Calm   6.0mph /  9.7km/h 68% 0.00in /  0mm
05:15 24.3 °F /  -4.3 °C 15.6 °F /  -9.1 °C 29.96in /  1014.4hPa SSW 2.0mph /  3.2km/h 4.0mph /  6.4km/h 69% 0.00in /  0mm
05:20 24.0 °F /  -4.4 °C 15.6 °F /  -9.1 °C 29.96in /  1014.4hPa SSW 4.0mph /  6.4km/h 6.0mph /  9.7km/h 70% 0.00in /  0mm
05:25 23.7 °F /  -4.6 °C 15.4 °F /  -9.2 °C 29.96in /  1014.4hPa SSW 2.0mph /  3.2km/h 6.0mph /  9.7km/h 70% 0.00in /  0mm
05:30 23.1 °F /  -4.9 °C 15.1 °F /  -9.4 °C 29.96in /  1014.4hPa SSW 2.0mph /  3.2km/h 5.0mph /  8km/h 71% 0.00in /  0mm
05:35 22.7 °F /  -5.2 °C 15.0 °F /  -9.4 °C 29.96in /  1014.4hPa SSW 3.0mph /  4.8km/h 5.0mph /  8km/h 72% 0.00in /  0mm
05:45 21.9 °F /  -5.6 °C 14.6 °F /  -9.7 °C 29.96in /  1014.4hPa SSW 1.0mph /  1.6km/h 4.0mph /  6.4km/h 73% 0.00in /  0mm
05:50 21.8 °F /  -5.7 °C 14.8 °F /  -9.6 °C 29.96in /  1014.4hPa SSW 2.0mph /  3.2km/h 4.0mph /  6.4km/h 74% 0.00in /  0mm
05:55 21.3 °F /  -5.9 °C 14.3 °F /  -9.8 °C 29.96in /  1014.4hPa SSW 1.0mph /  1.6km/h 4.0mph /  6.4km/h 74% 0.00in /  0mm
06:00 21.1 °F /  -6.1 °C 14.4 °F /  -9.8 °C 29.96in /  1014.4hPa SSW 3.0mph /  4.8km/h 5.0mph /  8km/h 75% 0.00in /  0mm
06:05 21.2 °F /  -6 °C 14.5 °F /  -9.7 °C 29.96in /  1014.4hPa SSW 2.0mph /  3.2km/h 5.0mph /  8km/h 75% 0.00in /  0mm
06:15 21.2 °F /  -6 °C 14.5 °F /  -9.7 °C 29.96in /  1014.4hPa SSW 3.0mph /  4.8km/h 5.0mph /  8km/h 75% 0.00in /  0mm
06:20 21.1 °F /  -6.1 °C 14.4 °F /  -9.8 °C 29.96in /  1014.4hPa SSW 3.0mph /  4.8km/h 5.0mph /  8km/h 75% 0.00in /  0mm
06:25 20.9 °F /  -6.2 °C 14.5 °F /  -9.7 °C 29.96in /  1014.4hPa SSW 4.0mph /  6.4km/h 6.0mph /  9.7km/h 76% 0.00in /  0mm
06:30 20.8 °F /  -6.2 °C 14.4 °F /  -9.8 °C 29.96in /  1014.4hPa SSW 3.0mph /  4.8km/h 6.0mph /  9.7km/h 76% 0.00in /  0mm
06:35 20.8 °F /  -6.2 °C 14.4 °F /  -9.8 °C 29.96in /  1014.4hPa SSW 3.0mph /  4.8km/h 6.0mph /  9.7km/h 76% 0.00in /  0mm
06:40 20.9 °F /  -6.2 °C 14.8 °F /  -9.6 °C 29.96in /  1014.4hPa SSW 3.0mph /  4.8km/h 6.0mph /  9.7km/h 77% 0.00in /  0mm
06:45 21.0 °F /  -6.1 °C 14.9 °F /  -9.5 °C 29.97in /  1014.8hPa SSW 2.0mph /  3.2km/h 6.0mph /  9.7km/h 77% 0.00in /  0mm
06:50 20.9 °F /  -6.2 °C 14.8 °F /  -9.6 °C 29.97in /  1014.8hPa SSW 2.0mph /  3.2km/h 6.0mph /  9.7km/h 77% 0.00in /  0mm
06:55 21.1 °F /  -6.1 °C 15.0 °F /  -9.4 °C 29.97in /  1014.8hPa SSW 3.0mph /  4.8km/h 5.0mph /  8km/h 77% 0.00in /  0mm
07:00 21.0 °F /  -6.1 °C 14.6 °F /  -9.7 °C 29.97in /  1014.8hPa SSW 3.0mph /  4.8km/h 5.0mph /  8km/h 76% 0.00in /  0mm
07:05 20.8 °F /  -6.2 °C 14.4 °F /  -9.8 °C 29.97in /  1014.8hPa SSW 2.0mph /  3.2km/h 6.0mph /  9.7km/h 76% 0.00in /  0mm
07:10 20.7 °F /  -6.3 °C 14.6 °F /  -9.7 °C 29.97in /  1014.8hPa SSW 2.0mph /  3.2km/h 6.0mph /  9.7km/h 77% 0.00in /  0mm
07:15 20.8 °F /  -6.2 °C 14.7 °F /  -9.6 °C 29.98in /  1015.1hPa SSW 2.0mph /  3.2km/h 5.0mph /  8km/h 77% 0.00in /  0mm
07:20 21.1 °F /  -6.1 °C 15.0 °F /  -9.4 °C 29.98in /  1015.1hPa South 2.0mph /  3.2km/h 5.0mph /  8km/h 77% 0.00in /  0mm
07:30 21.7 °F /  -5.7 °C 15.6 °F /  -9.1 °C 29.98in /  1015.1hPa South 3.0mph /  4.8km/h 5.0mph /  8km/h 77% 0.00in /  0mm
07:35 22.0 °F /  -5.6 °C 15.6 °F /  -9.1 °C 29.98in /  1015.1hPa SSW 3.0mph /  4.8km/h 6.0mph /  9.7km/h 76% 0.00in /  0mm
07:40 22.3 °F /  -5.4 °C 15.9 °F /  -8.9 °C 29.99in /  1015.5hPa SSW 2.0mph /  3.2km/h 6.0mph /  9.7km/h 76% 0.00in /  0mm
07:45 22.6 °F /  -5.2 °C 16.2 °F /  -8.8 °C 29.99in /  1015.5hPa SSW 2.0mph /  3.2km/h 7.0mph /  11.3km/h 76% 0.00in /  0mm
07:50 23.0 °F /  -5 °C 16.3 °F /  -8.7 °C 29.99in /  1015.5hPa SSW 3.0mph /  4.8km/h 7.0mph /  11.3km/h 75% 0.00in /  0mm
07:55 23.2 °F /  -4.9 °C 16.1 °F /  -8.8 °C 29.99in /  1015.5hPa SSW 4.0mph /  6.4km/h 7.0mph /  11.3km/h 74% 0.00in /  0mm
08:00 23.5 °F /  -4.7 °C 16.4 °F /  -8.7 °C 29.99in /  1015.5hPa SSW 3.0mph /  4.8km/h 10.0mph /  16.1km/h 74% 0.00in /  0mm
08:05 23.8 °F /  -4.6 °C 16.4 °F /  -8.7 °C 29.99in /  1015.5hPa South 3.0mph /  4.8km/h 10.0mph /  16.1km/h 73% 0.00in /  0mm
08:10 24.2 °F /  -4.3 °C 16.8 °F /  -8.4 °C 29.99in /  1015.5hPa SSW 5.0mph /  8km/h 10.0mph /  16.1km/h 73% 0.00in /  0mm
08:15 24.6 °F /  -4.1 °C 16.9 °F /  -8.4 °C 30.00in /  1015.8hPa South 5.0mph /  8km/h 10.0mph /  16.1km/h 72% 0.00in /  0mm
08:20 24.9 °F /  -3.9 °C 17.2 °F /  -8.2 °C 29.99in /  1015.5hPa SSW 5.0mph /  8km/h 9.0mph /  14.5km/h 72% 0.00in /  0mm
08:25 25.1 °F /  -3.8 °C 17.0 °F /  -8.3 °C 30.00in /  1015.8hPa SSW 6.0mph /  9.7km/h 9.0mph /  14.5km/h 71% 0.00in /  0mm
08:30 25.3 °F /  -3.7 °C 17.2 °F /  -8.2 °C 30.00in /  1015.8hPa SSW 3.0mph /  4.8km/h 9.0mph /  14.5km/h 71% 0.00in /  0mm
08:40 26.0 °F /  -3.3 °C 17.6 °F /  -8 °C 30.00in /  1015.8hPa SSW 5.0mph /  8km/h 9.0mph /  14.5km/h 70% 0.00in /  0mm
08:45 26.5 °F /  -3.1 °C 18.0 °F /  -7.8 °C 30.00in /  1015.8hPa SSW 3.0mph /  4.8km/h 9.0mph /  14.5km/h 70% 0.00in /  0mm
08:50 27.0 °F /  -2.8 °C 18.2 °F /  -7.7 °C 30.00in /  1015.8hPa SSW 7.0mph /  11.3km/h 11.0mph /  17.7km/h 69% 0.00in /  0mm
08:55 27.8 °F /  -2.3 °C 18.6 °F /  -7.4 °C 30.00in /  1015.8hPa SSW 6.0mph /  9.7km/h 15.0mph /  24.1km/h 68% 0.00in /  0mm
09:00 28.7 °F /  -1.8 °C 19.1 °F /  -7.2 °C 30.00in /  1015.8hPa SSW 4.0mph /  6.4km/h 15.0mph /  24.1km/h 67% 0.00in /  0mm
09:05 29.6 °F /  -1.3 °C 19.3 °F /  -7.1 °C 30.00in /  1015.8hPa SSW 4.0mph /  6.4km/h 12.0mph /  19.3km/h 65% 0.00in /  0mm
09:15 30.8 °F /  -0.7 °C 19.7 °F /  -6.8 °C 30.00in /  1015.8hPa SSW 6.0mph /  9.7km/h 13.0mph /  20.9km/h 63% 0.00in /  0mm
09:20 30.8 °F /  -0.7 °C 19.7 °F /  -6.8 °C 30.00in /  1015.8hPa SSW 8.0mph /  12.9km/h 14.0mph /  22.5km/h 63% 0.00in /  0mm
09:25 30.8 °F /  -0.7 °C 19.3 °F /  -7.1 °C 30.00in /  1015.8hPa SW 8.0mph /  12.9km/h 15.0mph /  24.1km/h 62% 0.00in /  0mm
09:35 31.1 °F /  -0.5 °C 19.6 °F /  -6.9 °C 29.99in /  1015.5hPa SSW 8.0mph /  12.9km/h 16.0mph /  25.7km/h 62% 0.00in /  0mm
09:40 31.6 °F /  -0.2 °C 19.7 °F /  -6.8 °C 29.99in /  1015.5hPa South 6.0mph /  9.7km/h 16.0mph /  25.7km/h 61% 0.00in /  0mm
09:45 32.1 °F /  0.1 °C 19.8 °F /  -6.8 °C 29.99in /  1015.5hPa South 6.0mph /  9.7km/h 13.0mph /  20.9km/h 60% 0.00in /  0mm
09:50 32.2 °F /  0.1 °C 19.5 °F /  -6.9 °C 29.99in /  1015.5hPa SSW 4.0mph /  6.4km/h 16.0mph /  25.7km/h 59% 0.00in /  0mm
09:55 32.4 °F /  0.2 °C 19.7 °F /  -6.8 °C 29.99in /  1015.5hPa SSW 8.0mph /  12.9km/h 16.0mph /  25.7km/h 59% 0.00in /  0mm
10:00 32.1 °F /  0.1 °C 19.4 °F /  -7 °C 29.99in /  1015.5hPa SSW 9.0mph /  14.5km/h 17.0mph /  27.4km/h 59% 0.00in /  0mm
10:10 32.3 °F /  0.2 °C 19.6 °F /  -6.9 °C 29.99in /  1015.5hPa SW 8.0mph /  12.9km/h 17.0mph /  27.4km/h 59% 0.00in /  0mm
10:15 32.7 °F /  0.4 °C 20.0 °F /  -6.7 °C 29.99in /  1015.5hPa SSW 8.0mph /  12.9km/h 15.0mph /  24.1km/h 59% 0.00in /  0mm
10:25 31.8 °F /  -0.1 °C 19.1 °F /  -7.2 °C 29.99in /  1015.5hPa SW 7.0mph /  11.3km/h 15.0mph /  24.1km/h 59% 0.00in /  0mm
10:30 32.2 °F /  0.1 °C 19.9 °F /  -6.7 °C 29.99in /  1015.5hPa SSW 3.0mph /  4.8km/h 14.0mph /  22.5km/h 60% 0.00in /  0mm
10:35 33.1 °F /  0.6 °C 20.3 °F /  -6.5 °C 29.99in /  1015.5hPa SSW 5.0mph /  8km/h 13.0mph /  20.9km/h 59% 0.00in /  0mm
10:45 33.2 °F /  0.7 °C 19.6 °F /  -6.9 °C 29.99in /  1015.5hPa SSW 7.0mph /  11.3km/h 15.0mph /  24.1km/h 57% 0.00in /  0mm
10:50 33.5 °F /  0.8 °C 19.9 °F /  -6.7 °C 29.99in /  1015.5hPa SSW 4.0mph /  6.4km/h 14.0mph /  22.5km/h 57% 0.00in /  0mm
10:55 34.0 °F /  1.1 °C 20.4 °F /  -6.4 °C 29.99in /  1015.5hPa SW 4.0mph /  6.4km/h 11.0mph /  17.7km/h 57% 0.00in /  0mm
11:00 34.4 °F /  1.3 °C 20.3 °F /  -6.5 °C 29.99in /  1015.5hPa SSW 5.0mph /  8km/h 12.0mph /  19.3km/h 56% 0.00in /  0mm
11:05 34.8 °F /  1.6 °C 20.7 °F /  -6.3 °C 29.99in /  1015.5hPa SSW 4.0mph /  6.4km/h 12.0mph /  19.3km/h 56% 0.00in /  0mm
11:10 35.1 °F /  1.7 °C 19.7 °F /  -6.8 °C 29.99in /  1015.5hPa SSW 7.0mph /  11.3km/h 12.0mph /  19.3km/h 53% 0.00in /  0mm
11:15 34.4 °F /  1.3 °C 19.9 °F /  -6.7 °C 29.99in /  1015.5hPa SSW 7.0mph /  11.3km/h 11.0mph /  17.7km/h 55% 0.00in /  0mm
11:20 34.4 °F /  1.3 °C 20.3 °F /  -6.5 °C 29.99in /  1015.5hPa SSW 6.0mph /  9.7km/h 11.0mph /  17.7km/h 56% 0.00in /  0mm
11:25 34.7 °F /  1.5 °C 20.6 °F /  -6.3 °C 29.99in /  1015.5hPa SSW 5.0mph /  8km/h 13.0mph /  20.9km/h 56% 0.00in /  0mm
11:35 34.4 °F /  1.3 °C 20.3 °F /  -6.5 °C 29.99in /  1015.5hPa SSW 5.0mph /  8km/h 13.0mph /  20.9km/h 56% 0.00in /  0mm
11:40 34.5 °F /  1.4 °C 20.4 °F /  -6.4 °C 29.98in /  1015.1hPa SSW 6.0mph /  9.7km/h 13.0mph /  20.9km/h 56% 0.00in /  0mm
11:45 35.0 °F /  1.7 °C 20.0 °F /  -6.7 °C 29.98in /  1015.1hPa SSW 8.0mph /  12.9km/h 13.0mph /  20.9km/h 54% 0.00in /  0mm
11:55 34.5 °F /  1.4 °C 20.4 °F /  -6.4 °C 29.98in /  1015.1hPa SSW 4.0mph /  6.4km/h 13.0mph /  20.9km/h 56% 0.00in /  0mm
12:00 34.4 °F /  1.3 °C 19.9 °F /  -6.7 °C 29.98in /  1015.1hPa SSW 8.0mph /  12.9km/h 13.0mph /  20.9km/h 55% 0.00in /  0mm
12:10 34.4 °F /  1.3 °C 20.3 °F /  -6.5 °C 29.97in /  1014.8hPa SSW 6.0mph /  9.7km/h 12.0mph /  19.3km/h 56% 0.00in /  0mm
12:15 34.4 °F /  1.3 °C 19.9 °F /  -6.7 °C 29.97in /  1014.8hPa SW 7.0mph /  11.3km/h 12.0mph /  19.3km/h 55% 0.00in /  0mm
12:20 34.4 °F /  1.3 °C 20.3 °F /  -6.5 °C 29.97in /  1014.8hPa SSW 6.0mph /  9.7km/h 12.0mph /  19.3km/h 56% 0.00in /  0mm
12:25 34.4 °F /  1.3 °C 20.3 °F /  -6.5 °C 29.97in /  1014.8hPa SSW 7.0mph /  11.3km/h 12.0mph /  19.3km/h 56% 0.00in /  0mm
12:30 34.4 °F /  1.3 °C 20.3 °F /  -6.5 °C 29.96in /  1014.4hPa SSW 7.0mph /  11.3km/h 12.0mph /  19.3km/h 56% 0.00in /  0mm
12:35 34.8 °F /  1.6 °C 20.7 °F /  -6.3 °C 29.96in /  1014.4hPa SSW 5.0mph /  8km/h 11.0mph /  17.7km/h 56% 0.00in /  0mm
12:45 35.0 °F /  1.7 °C 20.9 °F /  -6.2 °C 29.96in /  1014.4hPa SSW 6.0mph /  9.7km/h 10.0mph /  16.1km/h 56% 0.00in /  0mm
12:50 35.2 °F /  1.8 °C 21.1 °F /  -6.1 °C 29.96in /  1014.4hPa SSW 7.0mph /  11.3km/h 13.0mph /  20.9km/h 56% 0.00in /  0mm
13:00 35.4 °F /  1.9 °C 20.4 °F /  -6.4 °C 29.95in /  1014.1hPa SSW 5.0mph /  8km/h 12.0mph /  19.3km/h 54% 0.00in /  0mm
13:05 35.6 °F /  2 °C 20.6 °F /  -6.3 °C 29.96in /  1014.4hPa SSW 7.0mph /  11.3km/h 13.0mph /  20.9km/h 54% 0.00in /  0mm
13:10 35.3 °F /  1.8 °C 20.3 °F /  -6.5 °C 29.95in /  1014.1hPa SSW 8.0mph /  12.9km/h 15.0mph /  24.1km/h 54% 0.00in /  0mm
13:20 35.0 °F /  1.7 °C 20.9 °F /  -6.2 °C 29.95in /  1014.1hPa SW 6.0mph /  9.7km/h 14.0mph /  22.5km/h 56% 0.00in /  0mm
13:25 34.8 °F /  1.6 °C 20.3 °F /  -6.5 °C 29.95in /  1014.1hPa SSW 7.0mph /  11.3km/h 14.0mph /  22.5km/h 55% 0.00in /  0mm
13:35 35.0 °F /  1.7 °C 20.5 °F /  -6.4 °C 29.96in /  1014.4hPa SSW 7.0mph /  11.3km/h 11.0mph /  17.7km/h 55% 0.00in /  0mm
13:40 34.9 °F /  1.6 °C 20.4 °F /  -6.4 °C 29.95in /  1014.1hPa SW 7.0mph /  11.3km/h 12.0mph /  19.3km/h 55% 0.00in /  0mm
13:45 34.8 °F /  1.6 °C 20.3 °F /  -6.5 °C 29.95in /  1014.1hPa SSW 8.0mph /  12.9km/h 15.0mph /  24.1km/h 55% 0.00in /  0mm
13:50 35.0 °F /  1.7 °C 20.5 °F /  -6.4 °C 29.95in /  1014.1hPa SW 6.0mph /  9.7km/h 15.0mph /  24.1km/h 55% 0.00in /  0mm
13:55 35.1 °F /  1.7 °C 21.0 °F /  -6.1 °C 29.95in /  1014.1hPa SSW 3.0mph /  4.8km/h 12.0mph /  19.3km/h 56% 0.00in /  0mm
14:00 35.6 °F /  2 °C 20.6 °F /  -6.3 °C 29.95in /  1014.1hPa SSW 9.0mph /  14.5km/h 15.0mph /  24.1km/h 54% 0.00in /  0mm
14:05 35.5 °F /  1.9 °C 21.4 °F /  -5.9 °C 29.95in /  1014.1hPa SW 7.0mph /  11.3km/h 15.0mph /  24.1km/h 56% 0.00in /  0mm
14:10 35.8 °F /  2.1 °C 20.8 °F /  -6.2 °C 29.95in /  1014.1hPa South 7.0mph /  11.3km/h 14.0mph /  22.5km/h 54% 0.00in /  0mm
14:15 36.1 °F /  2.3 °C 21.5 °F /  -5.8 °C 29.95in /  1014.1hPa SSW 6.0mph /  9.7km/h 12.0mph /  19.3km/h 55% 0.00in /  0mm
14:20 36.0 °F /  2.2 °C 21.0 °F /  -6.1 °C 29.95in /  1014.1hPa SSW 5.0mph /  8km/h 10.0mph /  16.1km/h 54% 0.00in /  0mm
14:30 35.9 °F /  2.2 °C 20.9 °F /  -6.2 °C 29.95in /  1014.1hPa SSW 9.0mph /  14.5km/h 16.0mph /  25.7km/h 54% 0.00in /  0mm
14:35 36.0 °F /  2.2 °C 21.4 °F /  -5.9 °C 29.95in /  1014.1hPa South 5.0mph /  8km/h 16.0mph /  25.7km/h 55% 0.00in /  0mm
14:40 36.4 °F /  2.4 °C 21.8 °F /  -5.7 °C 29.95in /  1014.1hPa SSW 4.0mph /  6.4km/h 12.0mph /  19.3km/h 55% 0.00in /  0mm
14:45 36.3 °F /  2.4 °C 21.2 °F /  -6 °C 29.95in /  1014.1hPa SSW 6.0mph /  9.7km/h 12.0mph /  19.3km/h 54% 0.00in /  0mm
14:55 36.6 °F /  2.6 °C 21.1 °F /  -6.1 °C 29.94in /  1013.8hPa SSW 5.0mph /  8km/h 14.0mph /  22.5km/h 53% 0.00in /  0mm
15:00 37.2 °F /  2.9 °C 21.2 °F /  -6 °C 29.94in /  1013.8hPa SW 6.0mph /  9.7km/h 14.0mph /  22.5km/h 52% 0.00in /  0mm
15:05 36.3 °F /  2.4 °C 20.4 °F /  -6.4 °C 29.95in /  1014.1hPa SSW 6.0mph /  9.7km/h 14.0mph /  22.5km/h 52% 0.00in /  0mm
15:10 35.7 °F /  2.1 °C 20.2 °F /  -6.6 °C 29.95in /  1014.1hPa SW 5.0mph /  8km/h 14.0mph /  22.5km/h 53% 0.00in /  0mm
15:15 35.7 °F /  2.1 °C 20.2 °F /  -6.6 °C 29.95in /  1014.1hPa SW 4.0mph /  6.4km/h 11.0mph /  17.7km/h 53% 0.00in /  0mm
15:20 35.6 °F /  2 °C 20.6 °F /  -6.3 °C 29.95in /  1014.1hPa SW 6.0mph /  9.7km/h 15.0mph /  24.1km/h 54% 0.00in /  0mm
15:25 35.5 °F /  1.9 °C 20.9 °F /  -6.2 °C 29.95in /  1014.1hPa SSW 3.0mph /  4.8km/h 15.0mph /  24.1km/h 55% 0.00in /  0mm
15:30 35.6 °F /  2 °C 20.6 °F /  -6.3 °C 29.95in /  1014.1hPa SW 4.0mph /  6.4km/h 10.0mph /  16.1km/h 54% 0.00in /  0mm
15:40 35.5 °F /  1.9 °C 20.1 °F /  -6.6 °C 29.95in /  1014.1hPa SSW 4.0mph /  6.4km/h 10.0mph /  16.1km/h 53% 0.00in /  0mm
15:45 35.0 °F /  1.7 °C 19.6 °F /  -6.9 °C 29.95in /  1014.1hPa SSW 5.0mph /  8km/h 10.0mph /  16.1km/h 53% 0.00in /  0mm
15:50 34.7 °F /  1.5 °C 19.8 °F /  -6.8 °C 29.95in /  1014.1hPa SSW 2.0mph /  3.2km/h 11.0mph /  17.7km/h 54% 0.00in /  0mm
15:55 34.6 °F /  1.4 °C 19.7 °F /  -6.8 °C 29.95in /  1014.1hPa SW 4.0mph /  6.4km/h 11.0mph /  17.7km/h 54% 0.00in /  0mm
16:05 34.6 °F /  1.4 °C 19.7 °F /  -6.8 °C 29.95in /  1014.1hPa SSW 3.0mph /  4.8km/h 7.0mph /  11.3km/h 54% 0.00in /  0mm
16:10 34.7 °F /  1.5 °C 19.8 °F /  -6.8 °C 29.96in /  1014.4hPa South 2.0mph /  3.2km/h 7.0mph /  11.3km/h 54% 0.00in /  0mm
16:15 34.8 °F /  1.6 °C 19.8 °F /  -6.8 °C 29.95in /  1014.1hPa South 2.0mph /  3.2km/h 7.0mph /  11.3km/h 54% 0.00in /  0mm
16:20 35.0 °F /  1.7 °C 19.6 °F /  -6.9 °C 29.95in /  1014.1hPa South 3.0mph /  4.8km/h 7.0mph /  11.3km/h 53% 0.00in /  0mm
16:25 35.1 °F /  1.7 °C 20.1 °F /  -6.6 °C 29.96in /  1014.4hPa Calm   7.0mph /  11.3km/h 54% 0.00in /  0mm
16:30 35.1 °F /  1.7 °C 19.7 °F /  -6.8 °C 29.96in /  1014.4hPa South 1.0mph /  1.6km/h 5.0mph /  8km/h 53% 0.00in /  0mm
16:35 35.0 °F /  1.7 °C 19.6 °F /  -6.9 °C 29.96in /  1014.4hPa Calm   5.0mph /  8km/h 53% 0.00in /  0mm
16:40 34.9 °F /  1.6 °C 20.4 °F /  -6.4 °C 29.96in /  1014.4hPa Calm   5.0mph /  8km/h 55% 0.00in /  0mm
16:45 34.8 °F /  1.6 °C 19.8 °F /  -6.8 °C 29.96in /  1014.4hPa SW 1.0mph /  1.6km/h 4.0mph /  6.4km/h 54% 0.00in /  0mm
16:50 34.5 °F /  1.4 °C 20.0 °F /  -6.7 °C 29.96in /  1014.4hPa Calm   6.0mph /  9.7km/h 55% 0.00in /  0mm
16:55 34.4 °F /  1.3 °C 19.9 °F /  -6.7 °C 29.96in /  1014.4hPa Calm   6.0mph /  9.7km/h 55% 0.00in /  0mm
17:00 34.4 °F /  1.3 °C 19.9 °F /  -6.7 °C 29.96in /  1014.4hPa Calm   3.0mph /  4.8km/h 55% 0.00in /  0mm
17:10 34.1 °F /  1.2 °C 19.6 °F /  -6.9 °C 29.96in /  1014.4hPa SSW 2.0mph /  3.2km/h 4.0mph /  6.4km/h 55% 0.00in /  0mm
17:15 34.0 °F /  1.1 °C 19.1 °F /  -7.2 °C 29.96in /  1014.4hPa SSW 2.0mph /  3.2km/h 5.0mph /  8km/h 54% 0.00in /  0mm
17:20 34.1 °F /  1.2 °C 18.8 °F /  -7.3 °C 29.96in /  1014.4hPa SSW 3.0mph /  4.8km/h 5.0mph /  8km/h 53% 0.00in /  0mm
17:30 34.0 °F /  1.1 °C 18.7 °F /  -7.4 °C 29.96in /  1014.4hPa SSW 2.0mph /  3.2km/h 6.0mph /  9.7km/h 53% 0.00in /  0mm
17:35 34.0 °F /  1.1 °C 19.1 °F /  -7.2 °C 29.97in /  1014.8hPa South 1.0mph /  1.6km/h 7.0mph /  11.3km/h 54% 0.00in /  0mm
17:40 33.9 °F /  1.1 °C 19.0 °F /  -7.2 °C 29.97in /  1014.8hPa Calm   7.0mph /  11.3km/h 54% 0.00in /  0mm
17:45 33.8 °F /  1 °C 18.9 °F /  -7.3 °C 29.97in /  1014.8hPa SSW 1.0mph /  1.6km/h 5.0mph /  8km/h 54% 0.00in /  0mm
17:50 33.8 °F /  1 °C 18.9 °F /  -7.3 °C 29.97in /  1014.8hPa Calm   7.0mph /  11.3km/h 54% 0.00in /  0mm
18:00 33.6 °F /  0.9 °C 18.7 °F /  -7.4 °C 29.97in /  1014.8hPa South 2.0mph /  3.2km/h 7.0mph /  11.3km/h 54% 0.00in /  0mm
18:05 33.7 °F /  0.9 °C 19.2 °F /  -7.1 °C 29.97in /  1014.8hPa Calm   7.0mph /  11.3km/h 55% 0.00in /  0mm
18:10 33.8 °F /  1 °C 18.9 °F /  -7.3 °C 29.97in /  1014.8hPa Calm   8.0mph /  12.9km/h 54% 0.00in /  0mm
18:15 33.7 °F /  0.9 °C 19.2 °F /  -7.1 °C 29.98in /  1015.1hPa South 2.0mph /  3.2km/h 8.0mph /  12.9km/h 55% 0.00in /  0mm
18:20 33.7 °F /  0.9 °C 19.2 °F /  -7.1 °C 29.98in /  1015.1hPa South 3.0mph /  4.8km/h 6.0mph /  9.7km/h 55% 0.00in /  0mm
18:25 33.8 °F /  1 °C 18.5 °F /  -7.5 °C 29.98in /  1015.1hPa South 4.0mph /  6.4km/h 7.0mph /  11.3km/h 53% 0.00in /  0mm
18:30 33.9 °F /  1.1 °C 18.1 °F /  -7.7 °C 29.98in /  1015.1hPa SSW 4.0mph /  6.4km/h 7.0mph /  11.3km/h 52% 0.00in /  0mm
18:35 34.0 °F /  1.1 °C 18.2 °F /  -7.7 °C 29.98in /  1015.1hPa South 3.0mph /  4.8km/h 8.0mph /  12.9km/h 52% 0.00in /  0mm
18:40 34.1 °F /  1.2 °C 18.3 °F /  -7.6 °C 29.98in /  1015.1hPa SSW 2.0mph /  3.2km/h 8.0mph /  12.9km/h 52% 0.00in /  0mm
18:45 34.1 °F /  1.2 °C 18.3 °F /  -7.6 °C 29.98in /  1015.1hPa SW 2.0mph /  3.2km/h 6.0mph /  9.7km/h 52% 0.00in /  0mm
18:55 34.0 °F /  1.1 °C 17.8 °F /  -7.9 °C 29.98in /  1015.1hPa South 5.0mph /  8km/h 9.0mph /  14.5km/h 51% 0.00in /  0mm
19:00 34.0 °F /  1.1 °C 18.2 °F /  -7.7 °C 29.98in /  1015.1hPa South 3.0mph /  4.8km/h 9.0mph /  14.5km/h 52% 0.00in /  0mm
19:05 34.1 °F /  1.2 °C 17.9 °F /  -7.8 °C 29.98in /  1015.1hPa SSW 4.0mph /  6.4km/h 7.0mph /  11.3km/h 51% 0.00in /  0mm
19:10 34.1 °F /  1.2 °C 18.3 °F /  -7.6 °C 29.98in /  1015.1hPa SSW 4.0mph /  6.4km/h 7.0mph /  11.3km/h 52% 0.00in /  0mm
19:15 34.2 °F /  1.2 °C 18.0 °F /  -7.8 °C 29.98in /  1015.1hPa SSW 2.0mph /  3.2km/h 11.0mph /  17.7km/h 51% 0.00in /  0mm
19:20 34.2 °F /  1.2 °C 18.0 °F /  -7.8 °C 29.99in /  1015.5hPa SSW 4.0mph /  6.4km/h 11.0mph /  17.7km/h 51% 0.00in /  0mm
19:25 34.1 °F /  1.2 °C 17.9 °F /  -7.8 °C 29.99in /  1015.5hPa SSW 4.0mph /  6.4km/h 9.0mph /  14.5km/h 51% 0.00in /  0mm
19:35 34.2 °F /  1.2 °C 18.4 °F /  -7.6 °C 29.99in /  1015.5hPa SSW 6.0mph /  9.7km/h 10.0mph /  16.1km/h 52% 0.00in /  0mm
19:40 34.3 °F /  1.3 °C 18.5 °F /  -7.5 °C 29.99in /  1015.5hPa SSW 7.0mph /  11.3km/h 12.0mph /  19.3km/h 52% 0.00in /  0mm
19:45 34.3 °F /  1.3 °C 18.9 °F /  -7.3 °C 29.99in /  1015.5hPa SSW 3.0mph /  4.8km/h 12.0mph /  19.3km/h 53% 0.00in /  0mm
19:55 34.2 °F /  1.2 °C 18.8 °F /  -7.3 °C 29.99in /  1015.5hPa SSW 5.0mph /  8km/h 12.0mph /  19.3km/h 53% 0.00in /  0mm
20:00 34.1 °F /  1.2 °C 19.2 °F /  -7.1 °C 29.99in /  1015.5hPa SSW 5.0mph /  8km/h 12.0mph /  19.3km/h 54% 0.00in /  0mm
20:05 34.1 °F /  1.2 °C 19.2 °F /  -7.1 °C 29.99in /  1015.5hPa SSW 4.0mph /  6.4km/h 13.0mph /  20.9km/h 54% 0.00in /  0mm
20:10 34.0 °F /  1.1 °C 19.1 °F /  -7.2 °C 29.99in /  1015.5hPa SSW 6.0mph /  9.7km/h 13.0mph /  20.9km/h 54% 0.00in /  0mm
20:20 33.7 °F /  0.9 °C 19.7 °F /  -6.8 °C 30.00in /  1015.8hPa SSW 5.0mph /  8km/h 9.0mph /  14.5km/h 56% 0.00in /  0mm
20:25 33.5 °F /  0.8 °C 19.5 °F /  -6.9 °C 29.99in /  1015.5hPa SSW 3.0mph /  4.8km/h 9.0mph /  14.5km/h 56% 0.00in /  0mm
20:30 33.2 °F /  0.7 °C 19.6 °F /  -6.9 °C 29.99in /  1015.5hPa SSW 3.0mph /  4.8km/h 9.0mph /  14.5km/h 57% 0.00in /  0mm
20:35 33.1 °F /  0.6 °C 19.5 °F /  -6.9 °C 29.99in /  1015.5hPa SSW 3.0mph /  4.8km/h 8.0mph /  12.9km/h 57% 0.00in /  0mm
20:40 33.1 °F /  0.6 °C 19.9 °F /  -6.7 °C 29.99in /  1015.5hPa SSW 4.0mph /  6.4km/h 10.0mph /  16.1km/h 58% 0.00in /  0mm
20:50 33.0 °F /  0.6 °C 19.8 °F /  -6.8 °C 30.00in /  1015.8hPa SSW 5.0mph /  8km/h 10.0mph /  16.1km/h 58% 0.00in /  0mm
20:55 33.0 °F /  0.6 °C 20.2 °F /  -6.6 °C 30.00in /  1015.8hPa SSW 4.0mph /  6.4km/h 8.0mph /  12.9km/h 59% 0.00in /  0mm
21:00 33.1 °F /  0.6 °C 20.3 °F /  -6.5 °C 30.00in /  1015.8hPa SSW 6.0mph /  9.7km/h 9.0mph /  14.5km/h 59% 0.00in /  0mm
21:05 33.2 °F /  0.7 °C 20.8 °F /  -6.2 °C 30.00in /  1015.8hPa SSW 5.0mph /  8km/h 9.0mph /  14.5km/h 60% 0.00in /  0mm
21:10 33.1 °F /  0.6 °C 20.7 °F /  -6.3 °C 30.00in /  1015.8hPa SSW 4.0mph /  6.4km/h 8.0mph /  12.9km/h 60% 0.00in /  0mm
21:15 33.0 °F /  0.6 °C 21.0 °F /  -6.1 °C 30.00in /  1015.8hPa SW 2.0mph /  3.2km/h 8.0mph /  12.9km/h 61% 0.00in /  0mm
21:20 32.9 °F /  0.5 °C 20.9 °F /  -6.2 °C 30.00in /  1015.8hPa SSW 4.0mph /  6.4km/h 8.0mph /  12.9km/h 61% 0.00in /  0mm
21:25 32.9 °F /  0.5 °C 21.3 °F /  -5.9 °C 30.00in /  1015.8hPa SSW 3.0mph /  4.8km/h 8.0mph /  12.9km/h 62% 0.00in /  0mm
21:35 32.7 °F /  0.4 °C 21.5 °F /  -5.8 °C 30.00in /  1015.8hPa SSW 3.0mph /  4.8km/h 9.0mph /  14.5km/h 63% 0.00in /  0mm
21:40 32.6 °F /  0.3 °C 21.8 °F /  -5.7 °C 30.00in /  1015.8hPa SSW 4.0mph /  6.4km/h 10.0mph /  16.1km/h 64% 0.00in /  0mm
21:45 32.4 °F /  0.2 °C 21.6 °F /  -5.8 °C 30.00in /  1015.8hPa SSW 4.0mph /  6.4km/h 10.0mph /  16.1km/h 64% 0.00in /  0mm
21:55 32.2 °F /  0.1 °C 21.8 °F /  -5.7 °C 30.00in /  1015.8hPa SSW 4.0mph /  6.4km/h 10.0mph /  16.1km/h 65% 0.00in /  0mm
22:00 32.2 °F /  0.1 °C 22.1 °F /  -5.5 °C 30.01in /  1016.1hPa SSW 5.0mph /  8km/h 10.0mph /  16.1km/h 66% 0.00in /  0mm
22:05 32.3 °F /  0.2 °C 22.6 °F /  -5.2 °C 30.00in /  1015.8hPa SSW 4.0mph /  6.4km/h 10.0mph /  16.1km/h 67% 0.00in /  0mm
22:10 32.1 °F /  0.1 °C 22.4 °F /  -5.3 °C 30.01in /  1016.1hPa SW 5.0mph /  8km/h 10.0mph /  16.1km/h 67% 0.00in /  0mm
22:15 32.1 °F /  0.1 °C 22.4 °F /  -5.3 °C 30.01in /  1016.1hPa SSW 5.0mph /  8km/h 10.0mph /  16.1km/h 67% 0.00in /  0mm
22:20 32.0 °F /  0 °C 22.6 °F /  -5.2 °C 30.01in /  1016.1hPa SW 4.0mph /  6.4km/h 9.0mph /  14.5km/h 68% 0.00in /  0mm
22:30 31.9 °F /  -0.1 °C 22.9 °F /  -5.1 °C 30.01in /  1016.1hPa SSW 6.0mph /  9.7km/h 10.0mph /  16.1km/h 69% 0.00in /  0mm
22:40 32.0 °F /  0 °C 23.0 °F /  -5 °C 30.01in /  1016.1hPa SSW 5.0mph /  8km/h 11.0mph /  17.7km/h 69% 0.00in /  0mm
22:45 32.0 °F /  0 °C 23.0 °F /  -5 °C 30.01in /  1016.1hPa SSW 5.0mph /  8km/h 11.0mph /  17.7km/h 69% 0.00in /  0mm
22:50 31.9 °F /  -0.1 °C 23.2 °F /  -4.9 °C 30.01in /  1016.1hPa SSW 5.0mph /  8km/h 11.0mph /  17.7km/h 70% 0.00in /  0mm
23:00 31.7 °F /  -0.2 °C 23.4 °F /  -4.8 °C 30.01in /  1016.1hPa SW 5.0mph /  8km/h 12.0mph /  19.3km/h 71% 0.00in /  0mm
23:05 31.6 °F /  -0.2 °C 23.3 °F /  -4.8 °C 30.01in /  1016.1hPa SW 5.0mph /  8km/h 11.0mph /  17.7km/h 71% 0.00in /  0mm
23:10 31.5 °F /  -0.3 °C 23.5 °F /  -4.7 °C 30.01in /  1016.1hPa SSW 4.0mph /  6.4km/h 10.0mph /  16.1km/h 72% 0.00in /  0mm
23:15 31.4 °F /  -0.3 °C 23.4 °F /  -4.8 °C 30.01in /  1016.1hPa SSW 4.0mph /  6.4km/h 10.0mph /  16.1km/h 72% 0.00in /  0mm
23:20 31.2 °F /  -0.4 °C 23.6 °F /  -4.7 °C 30.01in /  1016.1hPa SSW 4.0mph /  6.4km/h 7.0mph /  11.3km/h 73% 0.00in /  0mm
23:25 31.1 °F /  -0.5 °C 23.5 °F /  -4.7 °C 30.01in /  1016.1hPa SSW 4.0mph /  6.4km/h 7.0mph /  11.3km/h 73% 0.00in /  0mm
23:30 31.1 °F /  -0.5 °C 23.8 °F /  -4.6 °C 30.01in /  1016.1hPa SSW 4.0mph /  6.4km/h 7.0mph /  11.3km/h 74% 0.00in /  0mm
23:35 31.2 °F /  -0.4 °C 23.9 °F /  -4.5 °C 30.02in /  1016.5hPa SSW 5.0mph /  8km/h 8.0mph /  12.9km/h 74% 0.00in /  0mm
23:40 31.1 °F /  -0.5 °C 24.1 °F /  -4.4 °C 30.02in /  1016.5hPa SSW 4.0mph /  6.4km/h 8.0mph /  12.9km/h 75% 0.00in /  0mm
23:50 31.1 °F /  -0.5 °C 24.4 °F /  -4.2 °C 30.02in /  1016.5hPa SSW 5.0mph /  8km/h 9.0mph /  14.5km/h 76% 0.00in /  0mm
23:55 30.9 °F /  -0.6 °C 24.2 °F /  -4.3 °C 30.02in /  1016.5hPa SSW 3.0mph /  4.8km/h 9.0mph /  14.5km/h 76% 0.00in /  0mm
Westford Weather
Compliments of Weather Underground

 
 
Current Radar Loop:

Copyright © WestfordWeather.net 2007-2014. All rights reserved.